Time;durP1;ratioP1;P1;durP2;ratioP2;P2;SDS_P1;SDS_P2;PMS_P1;PMS_P2;Temp;Humidity;BMP_temperature;BMP_pressure;BME280_temperature;BME280_humidity;BME280_pressure;Samples;Min_cycle;Max_cycle;Signal;HPM_P1;HPM_P2
2023/05/16 00:02:22;;;;;;;7.67;5.80;;;;;;;;;;5119358;28;20504;-52
2023/05/16 00:04:49;;;;;;;12.50;6.17;;;;;;;;;;5131936;28;20444;-55
2023/05/16 00:07:18;;;;;;;10.43;6.97;;;;;;;;;;5124111;28;20440;-55
2023/05/16 00:09:45;;;;;;;9.37;5.83;;;;;;;;;;5123922;28;20468;-56
2023/05/16 00:12:13;;;;;;;7.47;6.13;;;;;;;;;;5123327;28;20437;-55
2023/05/16 00:14:40;;;;;;;13.93;6.07;;;;;;;;;;5123558;28;20517;-55
2023/05/16 00:17:10;;;;;;;7.47;6.20;;;;;;;;;;5124593;28;20510;-54
2023/05/16 00:19:39;;;;;;;15.40;11.60;;;;;;;;;;5122879;28;20484;-56
2023/05/16 00:22:06;;;;;;;6.37;5.70;;;;;;;;;;5119420;28;20520;-49
2023/05/16 00:24:34;;;;;;;6.70;5.60;;;15.40;99.90;;;;;;5119666;28;20455;-52
2023/05/16 00:27:02;;;;;;;6.73;6.00;;;;;;;;;;5119596;28;20464;-56
2023/05/16 00:29:30;;;;;;;8.77;6.20;;;;;;;;;;5123029;28;20436;-53
2023/05/16 00:31:57;;;;;;;8.17;6.60;;;;;;;;;;5125383;28;20952;-51
2023/05/16 00:34:24;;;;;;;9.80;7.10;;;;;;;;;;5124194;28;20494;-54
2023/05/16 00:36:51;;;;;;;7.03;6.17;;;;;;;;;;5126404;28;20440;-53
2023/05/16 00:39:18;;;;;;;6.23;5.63;;;;;;;;;;5129985;28;20535;-54
2023/05/16 00:41:47;;;;;;;8.60;6.10;;;15.30;99.90;;;;;;5126578;28;20479;-52
2023/05/16 00:44:14;;;;;;;10.57;5.80;;;;;;;;;;5132823;28;20452;-56
2023/05/16 00:46:41;;;;;;;9.40;7.10;;;;;;;;;;5124457;28;20523;-55
2023/05/16 00:49:09;;;;;;;11.53;10.23;;;14.90;99.90;;;;;;5124180;28;20540;-56
2023/05/16 00:51:38;;;;;;;83.37;52.87;;;15.30;99.90;;;;;;5124249;28;20451;-56
2023/05/16 00:54:06;;;;;;;18.97;7.80;;;15.00;99.90;;;;;;5124552;28;20512;-55
2023/05/16 00:56:33;;;;;;;11.30;6.67;;;14.90;99.90;;;;;;5124568;28;20508;-55
2023/05/16 00:59:02;;;;;;;10.43;7.57;;;14.90;99.90;;;;;;5124697;28;20461;-52
2023/05/16 01:01:30;;;;;;;15.47;10.43;;;;;;;;;;5124315;28;20515;-55
2023/05/16 01:03:57;;;;;;;9.67;8.67;;;;;;;;;;5123555;28;20507;-56
2023/05/16 01:06:24;;;;;;;10.73;9.00;;;;;;;;;;5124431;28;20539;-53
2023/05/16 01:08:51;;;;;;;8.53;7.07;;;;;;;;;;5124539;28;20847;-54
2023/05/16 01:11:28;;;;;;;11.07;7.63;;;14.90;99.90;;;;;;5123887;28;20477;-56
2023/05/16 01:14:12;;;;;;;8.53;6.60;;;14.70;99.90;;;;;;5125961;28;20452;-53
2023/05/16 01:16:45;;;;;;;8.87;7.67;;;14.80;99.90;;;;;;5125288;28;20457;-55
2023/05/16 01:19:19;;;;;;;10.70;8.70;;;14.60;99.90;;;;;;5124580;28;20463;-57
2023/05/16 01:21:50;;;;;;;10.40;8.13;;;14.40;99.90;;;;;;5125225;28;20467;-57
2023/05/16 01:24:26;;;;;;;12.70;9.70;;;14.30;99.90;;;;;;5125394;28;20472;-56
2023/05/16 01:26:56;;;;;;;10.97;9.53;;;14.30;99.90;;;;;;5125887;28;20815;-53
2023/05/16 01:29:23;;;;;;;10.83;8.63;;;;;;;;;;5126427;28;20472;-54
2023/05/16 01:31:50;;;;;;;14.50;9.33;;;;;;;;;;5125238;28;20508;-55
2023/05/16 01:34:17;;;;;;;14.93;9.43;;;;;;;;;;5125944;28;20591;-57
2023/05/16 01:36:52;;;;;;;13.83;8.67;;;14.20;99.90;;;;;;5126180;28;20451;-55
2023/05/16 01:39:26;;;;;;;13.10;10.10;;;14.10;99.90;;;;;;5125402;28;20425;-50
2023/05/16 01:42:01;;;;;;;14.80;9.77;;;14.00;99.90;;;;;;5126919;28;20538;-55
2023/05/16 01:44:33;;;;;;;16.90;9.73;;;13.80;99.90;;;;;;5125337;28;20486;-54
2023/05/16 01:47:03;;;;;;;15.43;9.30;;;13.50;99.90;;;;;;5125888;28;20464;-55
2023/05/16 01:49:35;;;;;;;13.73;8.63;;;13.70;99.90;;;;;;5125868;28;20429;-54
2023/05/16 01:52:07;;;;;;;13.87;8.77;;;13.90;99.90;;;;;;5126761;28;20429;-53
2023/05/16 01:54:37;;;;;;;12.97;9.40;;;13.60;99.90;;;;;;5126680;28;20935;-55
2023/05/16 01:57:07;;;;;;;13.80;8.50;;;13.50;99.90;;;;;;5134165;28;20476;-54
2023/05/16 01:59:34;;;;;;;13.73;9.80;;;13.60;99.90;;;;;;5135903;28;20463;-52
2023/05/16 02:02:02;;;;;;;16.97;9.27;;;;;;;;;;5134619;28;20448;-52
2023/05/16 02:04:29;;;;;;;10.63;7.80;;;;;;;;;;5133662;28;20469;-55
2023/05/16 02:06:59;;;;;;;15.13;9.40;;;;;;;;;;5132955;28;20494;-56
2023/05/16 02:09:26;;;;;;;13.97;8.57;;;;;;;;;;5133678;28;20459;-54
2023/05/16 02:11:53;;;;;;;11.80;6.93;;;;;;;;;;5134313;28;20451;-54
2023/05/16 02:14:24;;;;;;;13.00;7.90;;;13.30;99.90;;;;;;5134235;28;20413;-54
2023/05/16 02:16:51;;;;;;;11.97;7.83;;;;;;;;;;5137576;28;20472;-54
2023/05/16 02:19:19;;;;;;;16.13;8.80;;;;;;;;;;5137474;28;20457;-54
2023/05/16 02:21:46;;;;;;;10.53;7.93;;;;;;;;;;5138611;28;20476;-56
2023/05/16 02:24:13;;;;;;;14.40;8.33;;;;;;;;;;5138094;28;20464;-55
2023/05/16 02:26:40;;;;;;;10.27;7.87;;;;;;;;;;5138057;28;20420;-53
2023/05/16 02:29:07;;;;;;;11.77;8.47;;;;;;;;;;5133342;28;20464;-56
2023/05/16 02:31:36;;;;;;;13.23;8.03;;;12.80;99.90;;;;;;5132168;28;20513;-56
2023/05/16 02:34:03;;;;;;;10.70;7.93;;;;;;;;;;5132388;28;20444;-56
2023/05/16 02:36:30;;;;;;;19.43;8.77;;;;;;;;;;5133362;28;20441;-57
2023/05/16 02:38:58;;;;;;;12.87;8.57;;;;;;;;;;5132579;28;20455;-55
2023/05/16 02:41:25;;;;;;;10.37;7.73;;;;;;;;;;5132447;28;20472;-54
2023/05/16 02:43:52;;;;;;;14.00;8.13;;;;;;;;;;5132739;28;20460;-50
2023/05/16 02:46:24;;;;;;;12.23;8.27;;;12.70;99.90;;;;;;5131895;28;20440;-56
2023/05/16 02:48:52;;;;;;;16.20;9.87;;;12.70;99.90;;;;;;5132633;28;20465;-56
2023/05/16 02:51:21;;;;;;;13.50;8.17;;;12.40;99.90;;;;;;5132491;28;20509;-56
2023/05/16 02:53:48;;;;;;;11.60;8.23;;;;;;;;;;5131862;28;20508;-55
2023/05/16 02:56:15;;;;;;;12.37;8.77;;;;;;;;;;5131558;28;20492;-53
2023/05/16 02:58:43;;;;;;;10.23;7.23;;;;;;;;;;5131840;28;20468;-53
2023/05/16 03:01:10;;;;;;;10.00;7.70;;;;;;;;;;5131511;28;20498;-55
2023/05/16 03:03:37;;;;;;;11.00;8.57;;;12.60;99.90;;;;;;5132251;28;20932;-52
2023/05/16 03:06:06;;;;;;;11.20;7.63;;;12.70;99.90;;;;;;5131482;28;20476;-55
2023/05/16 03:08:33;;;;;;;17.20;9.67;;;;;;;;;;5131247;28;20469;-55
2023/05/16 03:11:01;;;;;;;10.50;7.47;;;;;;;;;;5132051;28;20421;-53
2023/05/16 03:13:29;;;;;;;14.47;9.80;;;;;;;;;;5132675;28;20464;-55
2023/05/16 03:15:56;;;;;;;15.37;8.00;;;;;;;;;;5133222;28;20983;-55
2023/05/16 03:18:23;;;;;;;13.17;8.97;;;;;;;;;;5132945;28;20512;-52
2023/05/16 03:20:51;;;;;;;14.90;9.20;;;;;;;;;;5132621;28;20488;-54
2023/05/16 03:23:20;;;;;;;14.63;8.73;;;12.30;99.90;;;;;;5132052;28;20440;-55
2023/05/16 03:25:47;;;;;;;13.17;8.60;;;;;;;;;;5131959;28;20487;-52
2023/05/16 03:28:14;;;;;;;9.37;7.67;;;;;;;;;;5130368;28;20472;-52
2023/05/16 03:30:41;;;;;;;13.53;9.40;;;;;;;;;;5131423;28;20467;-55
2023/05/16 03:33:09;;;;;;;16.03;8.93;;;;;;;;;;5131936;28;20461;-53
2023/05/16 03:35:36;;;;;;;15.77;8.37;;;12.80;99.90;;;;;;5137427;28;20637;-52
2023/05/16 03:38:03;;;;;;;10.80;7.70;;;;;;;;;;5138210;28;20441;-52
2023/05/16 03:40:31;;;;;;;17.83;9.70;;;12.30;99.90;;;;;;5137689;28;20460;-55
2023/05/16 03:42:59;;;;;;;15.73;8.50;;;;;;;;;;5138171;28;20483;-53
2023/05/16 03:45:26;;;;;;;31.83;8.27;;;;;;;;;;5138253;28;20421;-53
2023/05/16 03:47:53;;;;;;;18.70;9.70;;;;;;;;;;5138057;28;20441;-56
2023/05/16 03:50:20;;;;;;;16.47;10.50;;;;;;;;;;5138199;28;20450;-54
2023/05/16 03:52:47;;;;;;;18.90;10.73;;;;;;;;;;5132844;28;20525;-53
2023/05/16 03:55:15;;;;;;;18.23;10.83;;;;;;;;;;5132302;28;20523;-56
2023/05/16 03:57:43;;;;;;;15.60;10.63;;;12.40;99.90;;;;;;5132509;28;20449;-55
2023/05/16 04:00:12;;;;;;;9.73;8.47;;;12.20;99.90;;;;;;5131161;28;20441;-55
2023/05/16 04:02:40;;;;;;;20.57;10.50;;;;;;;;;;5122532;28;20468;-54
2023/05/16 04:05:09;;;;;;;17.67;10.53;;;12.30;99.90;;;;;;5122222;28;20483;-53
2023/05/16 04:07:36;;;;;;;15.43;8.93;;;;;;;;;;5119468;28;20523;-54
2023/05/16 04:10:03;;;;;;;26.57;11.43;;;;;;;;;;5118965;28;20441;-55
2023/05/16 04:12:30;;;;;;;13.00;9.77;;;;;;;;;;5119357;28;20529;-56
2023/05/16 04:14:59;;;;;;;20.73;9.90;;;12.30;99.90;;;;;;5118890;28;20532;-56
2023/05/16 04:17:26;;;;;;;16.40;10.13;;;;;;;;;;5121443;28;20817;-58
2023/05/16 04:19:53;;;;;;;14.40;9.17;;;;;;;;;;5123494;28;20532;-57
2023/05/16 04:22:21;;;;;;;15.57;10.30;;;12.40;99.90;;;;;;5131009;28;20567;-56
2023/05/16 04:24:49;;;;;;;15.10;10.53;;;;;;;;;;5130947;28;20437;-51
2023/05/16 04:27:16;;;;;;;20.23;10.40;;;;;;;;;;5131219;28;20453;-56
2023/05/16 04:29:43;;;;;;;16.73;10.30;;;;;;;;;;5131920;28;20484;-56
2023/05/16 04:32:11;;;;;;;16.00;9.20;;;12.20;99.90;;;;;;5131741;28;20467;-54
2023/05/16 04:34:39;;;;;;;18.37;10.63;;;;;;;;;;5131911;28;20475;-54
2023/05/16 04:37:08;;;;;;;13.20;9.63;;;;;;;;;;5127040;28;20559;-55
2023/05/16 04:39:35;;;;;;;10.67;7.87;;;;;;;;;;5121448;28;20455;-53
2023/05/16 04:42:02;;;;;;;19.20;10.33;;;;;;;;;;5120038;28;20488;-54
2023/05/16 04:44:30;;;;;;;12.83;8.23;;;;;;;;;;5118209;28;20484;-56
2023/05/16 04:46:57;;;;;;;14.30;8.33;;;;;;;;;;5118987;28;20516;-55
2023/05/16 04:49:25;;;;;;;14.50;9.83;;;12.00;99.90;;;;;;5118777;28;20492;-56
2023/05/16 04:51:52;;;;;;;16.80;9.57;;;;;;;;;;5118764;28;20460;-57
2023/05/16 04:54:20;;;;;;;17.03;9.97;;;;;;;;;;5118698;28;20505;-57
2023/05/16 04:56:47;;;;;;;13.20;8.17;;;;;;;;;;5118184;28;20510;-56
2023/05/16 04:59:14;;;;;;;12.73;8.80;;;;;;;;;;5117959;28;20455;-54
2023/05/16 05:01:41;;;;;;;16.73;10.83;;;;;;;;;;5118737;28;20480;-54
2023/05/16 05:04:08;;;;;;;16.07;11.20;;;;;;;;;;5118813;28;20451;-55
2023/05/16 05:06:37;;;;;;;14.63;9.70;;;11.80;99.90;;;;;;5118524;28;20972;-54
2023/05/16 05:09:05;;;;;;;13.10;8.80;;;;;;;;;;5118594;28;20877;-55
2023/05/16 05:11:32;;;;;;;12.40;9.00;;;;;;;;;;5118449;28;20493;-57
2023/05/16 05:14:00;;;;;;;16.73;10.03;;;;;;;;;;5118333;28;20499;-55
2023/05/16 05:16:27;;;;;;;11.93;8.37;;;;;;;;;;5118146;28;20504;-56
2023/05/16 05:18:54;;;;;;;15.63;10.53;;;;;;;;;;5118770;28;20480;-55
2023/05/16 05:21:24;;;;;;;14.80;7.83;;;;;;;;;;5118929;28;20464;-55
2023/05/16 05:23:52;;;;;;;13.53;9.73;;;11.70;99.90;;;;;;5118332;28;20777;-56
2023/05/16 05:26:21;;;;;;;26.53;16.33;;;;;;;;;;5118529;28;20551;-57
2023/05/16 05:28:48;;;;;;;21.20;10.13;;;;;;;;;;5118513;28;20797;-55
2023/05/16 05:31:15;;;;;;;15.30;10.90;;;;;;;;;;5119488;28;20925;-55
2023/05/16 05:33:42;;;;;;;17.27;11.60;;;;;;;;;;5118112;28;20528;-55
2023/05/16 05:36:09;;;;;;;17.53;11.07;;;;;;;;;;5118539;28;20476;-55
2023/05/16 05:38:37;;;;;;;16.50;9.07;;;;;;;;;;5118531;28;20496;-56
2023/05/16 05:41:05;;;;;;;17.20;11.73;;;11.80;99.90;;;;;;5118116;28;20483;-56
2023/05/16 05:43:32;;;;;;;14.40;9.90;;;;;;;;;;5118066;28;20487;-56
2023/05/16 05:46:00;;;;;;;21.47;12.07;;;;;;;;;;5118083;28;20536;-58
2023/05/16 05:48:28;;;;;;;24.97;7.33;;;11.90;99.90;;;;;;5118031;28;20523;-52
2023/05/16 05:50:56;;;;;;;16.70;10.50;;;;;;;;;;5121263;28;20551;-53
2023/05/16 05:53:23;;;;;;;16.87;9.70;;;;;;;;;;5121762;28;20519;-55
2023/05/16 05:55:50;;;;;;;16.37;11.40;;;;;;;;;;5122044;28;20454;-56
2023/05/16 05:58:18;;;;;;;13.20;8.97;;;11.80;99.90;;;;;;5121976;28;20892;-57
2023/05/16 06:00:45;;;;;;;14.63;9.13;;;;;;;;;;5122330;28;20755;-55
2023/05/16 06:03:13;;;;;;;18.37;9.90;;;;;;;;;;5132864;28;20574;-51
2023/05/16 06:05:41;;;;;;;17.20;9.60;;;;;;;;;;5124951;28;20447;-54
2023/05/16 06:08:08;;;;;;;19.27;10.03;;;;;;;;;;5121771;28;20449;-55
2023/05/16 06:10:35;;;;;;;16.13;9.40;;;;;;;;;;5121292;28;20472;-56
2023/05/16 06:13:02;;;;;;;11.30;8.53;;;;;;;;;;5121762;28;20836;-56
2023/05/16 06:15:30;;;;;;;11.83;7.37;;;12.00;99.90;;;;;;5121260;28;20842;-54
2023/05/16 06:17:58;;;;;;;9.60;7.93;;;;;;;;;;5121370;28;20459;-55
2023/05/16 06:20:25;;;;;;;10.83;7.40;;;;;;;;;;5121557;28;20543;-52
2023/05/16 06:22:52;;;;;;;8.00;6.53;;;;;;;;;;5121231;28;20874;-57
2023/05/16 06:25:20;;;;;;;10.00;7.23;;;;;;;;;;5121545;28;20451;-55
2023/05/16 06:27:47;;;;;;;11.80;7.43;;;;;;;;;;5121101;28;20472;-56
2023/05/16 06:30:14;;;;;;;10.03;6.80;;;;;;;;;;5121432;28;20429;-56
2023/05/16 06:32:43;;;;;;;12.40;6.23;;;12.50;99.90;;;;;;5120292;28;20451;-56
2023/05/16 06:35:10;;;;;;;10.30;7.57;;;;;;;;;;5120508;28;20531;-56
2023/05/16 06:37:37;;;;;;;9.73;7.07;;;;;;;;;;5120750;28;20955;-58
2023/05/16 06:40:05;;;;;;;10.80;7.07;;;12.80;99.90;;;;;;5120409;28;20520;-56
2023/05/16 06:42:32;;;;;;;7.80;6.37;;;;;;;;;;5120486;28;20461;-56
2023/05/16 06:44:59;;;;;;;12.10;7.80;;;;;;;;;;5120089;28;20522;-57
2023/05/16 06:47:27;;;;;;;9.77;6.57;;;;;;;;;;5120342;28;20555;-58
2023/05/16 06:49:55;;;;;;;15.73;6.77;;;12.70;99.90;;;;;;5120775;28;20500;-54
2023/05/16 06:52:22;;;;;;;14.40;7.83;;;;;;;;;;5120455;28;20465;-55
2023/05/16 06:54:49;;;;;;;12.80;6.57;;;;;;;;;;5120730;28;20452;-55
2023/05/16 06:57:17;;;;;;;8.73;5.67;;;;;;;;;;5132184;28;20432;-54
2023/05/16 06:59:44;;;;;;;10.00;6.00;;;;;;;;;;5133958;28;20441;-55
2023/05/16 07:02:11;;;;;;;7.20;5.50;;;;;;;;;;5137653;28;20457;-55
2023/05/16 07:04:39;;;;;;;10.47;6.67;;;;;;;;;;5135845;28;20460;-55
2023/05/16 07:07:07;;;;;;;12.10;6.63;;;12.30;99.90;;;;;;5124926;28;20449;-56
2023/05/16 07:09:35;;;;;;;7.53;4.63;;;;;;;;;;5123861;28;20473;-57
2023/05/16 07:12:02;;;;;;;6.40;5.43;;;;;;;;;;5124141;28;20516;-56
2023/05/16 07:14:29;;;;;;;11.60;6.03;;;;;;;;;;5125784;28;20512;-54
2023/05/16 07:16:56;;;;;;;9.73;4.97;;;;;;;;;;5122620;28;20440;-55
2023/05/16 07:19:23;;;;;;;6.57;4.63;;;;;;;;;;5124916;28;20469;-57
2023/05/16 07:21:50;;;;;;;8.73;5.40;;;;;;;;;;5123655;28;20491;-54
2023/05/16 07:24:19;;;;;;;12.00;5.43;;;12.70;99.90;;;;;;5124165;28;20479;-50
2023/05/16 07:26:46;;;;;;;6.23;3.40;;;;;;;;;;5123007;28;20456;-53
2023/05/16 07:29:13;;;;;;;6.47;5.70;;;;;;;;;;5123474;28;20965;-54
2023/05/16 07:31:40;;;;;;;8.13;4.33;;;;;;;;;;5122702;28;20982;-63
2023/05/16 07:34:07;;;;;;;5.97;3.90;;;;;;;;;;5123330;28;20547;-62
2023/05/16 07:36:35;;;;;;;7.10;4.13;;;;;;;;;;5122544;28;20487;-60
2023/05/16 07:39:02;;;;;;;7.00;4.03;;;;;;;;;;5122301;28;20471;-60
2023/05/16 07:41:30;;;;;;;6.83;4.43;;;13.00;99.90;;;;;;5123621;28;20476;-65
2023/05/16 07:43:58;;;;;;;6.07;5.10;;;;;;;;;;5121747;28;20484;-64
2023/05/16 07:46:25;;;;;;;6.80;3.80;;;;;;;;;;5122055;28;20503;-62
2023/05/16 07:48:52;;;;;;;9.30;4.73;;;;;;;;;;5123501;28;20506;-61
2023/05/16 07:51:19;;;;;;;7.60;4.20;;;;;;;;;;5123617;28;20452;-61
2023/05/16 07:53:46;;;;;;;8.03;3.63;;;;;;;;;;5122089;28;20440;-61
2023/05/16 07:56:14;;;;;;;6.27;4.20;;;;;;;;;;5122489;28;20479;-64
2023/05/16 07:58:42;;;;;;;6.03;4.33;;;13.20;99.90;;;;;;5124366;28;21057;-63
2023/05/16 08:01:10;;;;;;;4.13;3.27;;;;;;;;;;5123650;28;20429;-58
2023/05/16 08:03:37;;;;;;;6.97;3.07;;;;;;;;;;5134162;28;20445;-63
2023/05/16 08:06:05;;;;;;;4.50;2.57;;;;;;;;;;5125902;28;20511;-59
2023/05/16 08:08:32;;;;;;;7.23;3.57;;;;;;;;;;5122909;28;20525;-61
2023/05/16 08:10:59;;;;;;;3.87;2.80;;;;;;;;;;5121073;28;20464;-63
2023/05/16 08:13:27;;;;;;;3.77;2.70;;;;;;;;;;5120230;28;20474;-63
2023/05/16 08:15:55;;;;;;;5.23;3.20;;;;;;;;;;5121257;28;20484;-63
2023/05/16 08:18:22;;;;;;;5.77;2.87;;;;;;;;;;5118245;28;20468;-62
2023/05/16 08:20:50;;;;;;;4.13;3.00;;;;;;;;;;5122827;28;20448;-63
2023/05/16 08:23:17;;;;;;;5.40;3.30;;;;;;;;;;5121355;28;20476;-63
2023/05/16 08:25:44;;;;;;;3.93;3.07;;;;;;;;;;5121811;28;20429;-62
2023/05/16 08:28:11;;;;;;;4.83;3.93;;;;;;;;;;5119648;28;20448;-62
2023/05/16 08:30:39;;;;;;;4.77;3.93;;;;;;;;;;5122043;28;20502;-64
2023/05/16 08:33:09;;;;;;;4.63;4.17;;;12.50;99.90;;;;;;5122547;28;20842;-61
2023/05/16 08:35:36;;;;;;;4.83;3.83;;;;;;;;;;5121518;28;20476;-60
2023/05/16 08:38:03;;;;;;;3.40;2.73;;;;;;;;;;5122089;28;20478;-59
2023/05/16 08:40:30;;;;;;;7.03;3.40;;;;;;;;;;5121780;28;20441;-60
2023/05/16 08:42:58;;;;;;;6.17;3.00;;;;;;;;;;5121629;28;20514;-62
2023/05/16 08:45:25;;;;;;;5.27;3.03;;;;;;;;;;5128095;28;20501;-58
2023/05/16 08:47:55;;;;;;;11.17;3.37;;;12.50;99.90;;;;;;5131760;28;20537;-55
2023/05/16 08:50:24;;;;;;;3.07;2.77;;;12.70;99.90;;;;;;5121746;28;20953;-63
2023/05/16 08:52:53;;;;;;;2.33;2.00;;;12.60;99.90;;;;;;5120939;28;20487;-63
2023/05/16 08:55:20;;;;;;;3.87;2.73;;;12.60;99.90;;;;;;5121668;28;20455;-61
2023/05/16 08:57:52;;;;;;;3.20;2.10;;;12.50;99.90;;;;;;5121490;28;20440;-61
2023/05/16 09:00:20;;;;;;;2.87;2.00;;;12.90;99.90;;;;;;5120829;28;20429;-63
2023/05/16 09:02:47;;;;;;;3.33;2.60;;;;;;;;;;5118291;28;20510;-62
2023/05/16 09:05:18;;;;;;;2.70;2.07;;;12.60;99.90;;;;;;5118027;28;20441;-63
2023/05/16 09:07:47;;;;;;;5.67;2.50;;;12.50;99.90;;;;;;5118041;28;20429;-60
2023/05/16 09:10:14;;;;;;;4.90;2.57;;;;;;;;;;5117566;28;20808;-64
2023/05/16 09:12:42;;;;;;;2.83;2.30;;;;;;;;;;5117875;28;20483;-66
2023/05/16 09:15:10;;;;;;;2.60;2.00;;;13.20;99.90;;;;;;5117059;28;20450;-62
2023/05/16 09:17:38;;;;;;;4.17;2.30;;;13.10;99.90;;;;;;5117523;28;20505;-63
2023/05/16 09:20:12;;;;;;;4.63;2.07;;;;;;;;;;5117140;28;20506;-62
2023/05/16 09:22:40;;;;;;;2.97;1.60;;;13.20;99.90;;;;;;5117220;28;20509;-61
2023/05/16 09:25:09;;;;;;;4.47;1.53;;;;;;;;;;5119488;28;20655;-62
2023/05/16 09:27:37;;;;;;;2.10;1.60;;;;;;;;;;5121405;28;20541;-66
2023/05/16 09:30:04;;;;;;;1.77;1.30;;;;;;;;;;5121496;28;20790;-64
2023/05/16 09:32:35;;;;;;;2.80;1.87;;;;;;;;;;5121534;28;20436;-63
2023/05/16 09:35:02;;;;;;;3.33;2.10;;;;;;;;;;5121438;28;20428;-62
2023/05/16 09:37:31;;;;;;;3.20;1.87;;;13.00;99.90;;;;;;5121027;28;21032;-60
2023/05/16 09:39:58;;;;;;;2.30;1.97;;;;;;;;;;5120548;28;20464;-64
2023/05/16 09:42:26;;;;;;;4.13;1.70;;;13.50;99.90;;;;;;5120741;28;20483;-63
2023/05/16 09:44:55;;;;;;;1.60;1.37;;;13.30;99.90;;;;;;5121349;28;21032;-61
2023/05/16 09:47:23;;;;;;;5.00;1.83;;;;;;;;;;5120831;28;20449;-62
2023/05/16 09:49:53;;;;;;;3.13;1.83;;;13.50;99.90;;;;;;5120351;28;20531;-62
2023/05/16 09:52:20;;;;;;;2.57;1.50;;;;;;;;;;5120590;28;20515;-62
2023/05/16 09:54:48;;;;;;;2.20;1.60;;;;;;;;;;5121816;28;20929;-63
2023/05/16 09:57:18;;;;;;;4.90;1.73;;;13.50;99.90;;;;;;5120566;28;20476;-60
2023/05/16 09:59:47;;;;;;;2.60;1.53;;;13.50;99.90;;;;;;5120577;28;20444;-59
2023/05/16 10:02:14;;;;;;;6.23;1.93;;;;;;;;;;5120782;28;20480;-59
2023/05/16 10:04:41;;;;;;;4.20;1.97;;;;;;;;;;5120826;28;20424;-63
2023/05/16 10:07:09;;;;;;;1.73;1.37;;;;;;;;;;5120503;28;20454;-62
2023/05/16 10:09:39;;;;;;;6.87;1.83;;;13.50;99.90;;;;;;5119929;28;20440;-62
2023/05/16 10:12:10;;;;;;;2.80;1.93;;;13.50;99.90;;;;;;5120663;28;20432;-60
2023/05/16 10:14:38;;;;;;;5.50;3.80;;;;;;;;;;5120198;28;20504;-64
2023/05/16 10:17:07;;;;;;;5.93;2.40;;;13.40;99.90;;;;;;5119929;28;20468;-64
2023/05/16 10:19:37;;;;;;;3.43;2.40;;;13.50;99.90;;;;;;5119841;28;20521;-63
2023/05/16 10:22:06;;;;;;;4.90;2.43;;;13.40;99.90;;;;;;5120392;28;20454;-63
2023/05/16 10:24:43;;;;;;;2.63;2.20;;;13.40;99.90;;;;;;5120041;28;20497;-61
2023/05/16 10:27:11;;;;;;;3.40;2.07;;;;;;;;;;5119705;28;20424;-63
2023/05/16 10:29:38;;;;;;;5.10;2.07;;;;;;;;;;5120200;28;20940;-63
2023/05/16 10:32:08;;;;;;;14.20;2.30;;;13.70;99.90;;;;;;5119792;28;20464;-62
2023/05/16 10:34:36;;;;;;;2.40;1.93;;;;;;;;;;5119733;28;20779;-62
2023/05/16 10:37:03;;;;;;;4.40;2.40;;;;;;;;;;5121152;28;20543;-62
2023/05/16 10:39:32;;;;;;;4.13;2.70;;;13.40;99.90;;;;;;5123163;28;20476;-63
2023/05/16 10:42:00;;;;;;;7.63;2.87;;;13.70;99.90;;;;;;5122014;28;20453;-64
2023/05/16 10:44:27;;;;;;;6.57;2.90;;;;;;;;;;5121990;28;20521;-64
2023/05/16 10:46:54;;;;;;;8.43;3.07;;;;;;;;;;5121710;28;20456;-63
2023/05/16 10:49:26;;;;;;;4.67;2.77;;;13.90;99.90;;;;;;5122016;28;20532;-60
2023/05/16 10:52:08;;;;;;;5.33;2.60;;;13.80;99.90;;;;;;5122459;28;20429;-63
2023/05/16 10:54:36;;;;;;;3.50;2.43;;;13.50;99.90;;;;;;5122206;28;20511;-62
2023/05/16 10:57:09;;;;;;;5.77;2.60;;;13.50;99.90;;;;;;5122358;28;20444;-63
2023/05/16 10:59:43;;;;;;;6.33;2.60;;;13.70;99.90;;;;;;5122370;28;20496;-61
2023/05/16 11:02:25;;;;;;;7.80;2.43;;;13.60;99.90;;;;;;5121201;28;20476;-62
2023/05/16 11:04:54;;;;;;;1.93;1.67;;;13.50;99.90;;;;;;5121936;28;20494;-60
2023/05/16 11:07:24;;;;;;;5.60;4.27;;;13.30;99.90;;;;;;5122242;28;20464;-62
2023/05/16 11:10:04;;;;;;;12.03;2.93;;;13.30;99.90;;;;;;5121792;28;20472;-63
2023/05/16 11:12:45;;;;;;;7.27;1.60;;;;;;;;;;5122020;28;20425;-63
2023/05/16 11:15:21;;;;;;;4.70;2.17;;;13.10;99.90;;;;;;5122197;28;20482;-65
2023/05/16 11:17:49;;;;;;;4.90;1.90;;;;;;;;;;5121801;28;20499;-63
2023/05/16 11:20:28;;;;;;;3.00;1.93;;;13.40;99.90;;;;;;5121315;28;20550;-66
2023/05/16 11:23:19;;;;;;;3.73;2.60;;;13.50;99.90;;;;;;5120806;28;20480;-67
2023/05/16 11:25:49;;;;;;;10.43;2.70;;;13.70;99.90;;;;;;5121186;28;20429;-65
2023/05/16 11:28:16;;;;;;;3.33;2.17;;;;;;;;;;5120953;28;20500;-65
2023/05/16 11:30:45;;;;;;;10.07;2.63;;;13.90;99.90;;;;;;5120432;28;20440;-65
2023/05/16 11:33:12;;;;;;;3.53;2.07;;;;;;;;;;5120823;28;20483;-62
2023/05/16 11:35:41;;;;;;;3.70;1.60;;;14.00;99.90;;;;;;5120256;28;20436;-64
2023/05/16 11:38:13;;;;;;;3.30;1.77;;;14.30;99.90;;;;;;5120362;28;20505;-62
2023/05/16 11:40:43;;;;;;;5.53;1.60;;;14.10;99.90;;;;;;5120478;28;20556;-64
2023/05/16 11:43:10;;;;;;;8.53;2.43;;;;;;;;;;5120769;28;20494;-62
2023/05/16 11:45:37;;;;;;;7.03;2.27;;;;;;;;;;5121131;28;20564;-63
2023/05/16 11:48:07;;;;;;;7.10;2.67;;;;;;;;;;5120496;28;20453;-57
2023/05/16 11:50:35;;;;;;;2.93;1.67;;;14.20;99.90;;;;;;5120654;28;20448;-56
2023/05/16 11:53:05;;;;;;;5.07;2.37;;;;;;;;;;5120558;28;20445;-56
2023/05/16 11:55:33;;;;;;;2.60;1.80;;;;;;;;;;5120615;28;20453;-56
2023/05/16 11:58:00;;;;;;;2.30;1.60;;;;;;;;;;5120134;28;20523;-59
2023/05/16 12:00:28;;;;;;;22.10;2.90;;;;;;;;;;5119602;28;20480;-56
2023/05/16 12:03:01;;;;;;;6.97;3.00;;;15.40;99.90;;;;;;5119785;28;20494;-57
2023/05/16 12:05:30;;;;;;;4.93;2.60;;;;;;;;;;5122522;28;20434;-57
2023/05/16 12:07:58;;;;;;;6.67;2.30;;;;;;;;;;5123542;28;20437;-56
2023/05/16 12:10:26;;;;;;;8.43;2.23;;;16.30;99.90;;;;;;5123265;28;20444;-55
2023/05/16 12:12:54;;;;;;;3.87;1.93;;;;;;;;;;5122957;28;20565;-56
2023/05/16 12:15:21;;;;;;;3.23;1.70;;;;;;;;;;5123681;28;20524;-59
2023/05/16 12:17:49;;;;;;;2.63;2.40;;;;;;;;;;5123512;28;20469;-57
2023/05/16 12:20:16;;;;;;;2.63;1.30;;;;;;;;;;5123943;28;20461;-55
2023/05/16 12:22:44;;;;;;;3.90;1.57;;;15.70;99.90;;;;;;5123483;28;20452;-57
2023/05/16 12:25:30;;;;;;;7.23;2.93;;;15.50;99.90;;;;;;5123246;28;20462;-56
2023/05/16 12:27:58;;;;;;;2.73;1.80;;;15.40;99.90;;;;;;5123727;28;20428;-51
2023/05/16 12:30:27;;;;;;;6.57;1.83;;;15.20;99.90;;;;;;5120516;28;20437;-63
2023/05/16 12:32:56;;;;;;;4.37;2.27;;;;;;;;;;5119828;28;20468;-60
2023/05/16 12:35:24;;;;;;;5.70;1.93;;;;;;;;;;5119082;28;20451;-61
2023/05/16 12:37:51;;;;;;;5.23;1.73;;;;;;;;;;5119704;28;20436;-61
2023/05/16 12:40:19;;;;;;;11.43;2.40;;;;;;;;;;5119243;28;20421;-60
2023/05/16 12:42:50;;;;;;;3.20;2.07;;;15.40;99.90;;;;;;5118776;28;20819;-63
2023/05/16 12:45:18;;;;;;;3.67;2.17;;;15.40;99.90;;;;;;5119100;28;20479;-66
2023/05/16 12:47:45;;;;;;;9.40;2.20;;;;;;;;;;5118922;28;20472;-61
2023/05/16 12:50:13;;;;;;;3.80;1.60;;;;;;;;;;5118339;28;20484;-62
2023/05/16 12:52:48;;;;;;;2.40;1.47;;;;;;;;;;5118975;28;20509;-63
2023/05/16 12:55:15;;;;;;;3.93;1.20;;;;;;;;;;5120531;28;20952;-63
2023/05/16 12:57:43;;;;;;;3.13;1.77;;;;;;;;;;5119330;28;20517;-63
2023/05/16 13:00:13;;;;;;;19.00;8.47;;;15.70;99.90;;;;;;5118235;28;20449;-61
2023/05/16 13:02:40;;;;;;;6.40;3.10;;;;;;;;;;5118333;28;20436;-61
2023/05/16 13:05:08;;;;;;;2.70;1.70;;;;;;;;;;5118638;28;20441;-57
2023/05/16 13:07:38;;;;;;;4.80;2.73;;;;;;;;;;5119304;28;20441;-63
2023/05/16 13:10:06;;;;;;;3.90;2.70;;;16.70;99.90;;;;;;5118349;28;20445;-60
2023/05/16 13:12:33;;;;;;;6.10;2.80;;;;;;;;;;5118061;28;20476;-62
2023/05/16 13:15:01;;;;;;;8.30;4.50;;;;;;;;;;5118401;28;20444;-62
2023/05/16 13:17:29;;;;;;;4.60;1.50;;;17.00;99.90;;;;;;5117973;28;20441;-64
2023/05/16 13:19:56;;;;;;;4.37;1.93;;;;;;;;;;5117576;28;20956;-64
2023/05/16 13:22:24;;;;;;;9.50;2.10;;;;;;;;;;5117744;28;20491;-60
2023/05/16 13:24:51;;;;;;;4.90;1.97;;;;;;;;;;5118127;28;20561;-61
2023/05/16 13:27:19;;;;;;;3.63;1.10;;;;;;;;;;5117183;28;20472;-62
2023/05/16 13:29:46;;;;;;;4.40;1.73;;;;;;;;;;5117532;28;20445;-60
2023/05/16 13:32:13;;;;;;;2.77;1.50;;;;;;;;;;5117177;28;20508;-60
2023/05/16 13:34:41;;;;;;;9.20;2.13;;;16.80;99.90;;;;;;5118332;28;20903;-64
2023/05/16 13:37:09;;;;;;;5.53;1.77;;;;;;;;;;5117752;28;20488;-63
2023/05/16 13:39:36;;;;;;;2.17;1.60;;;;;;;;;;5118033;28;20516;-64
2023/05/16 13:42:03;;;;;;;5.50;2.00;;;;;;;;;;5117877;28;20449;-61
2023/05/16 13:44:30;;;;;;;8.70;3.17;;;;;;;;;;5117044;28;20548;-61
2023/05/16 13:46:58;;;;;;;3.83;2.17;;;;;;;;;;5117638;28;20479;-61
2023/05/16 13:49:25;;;;;;;7.00;1.60;;;;;;;;;;5117139;28;20488;-60
2023/05/16 13:51:53;;;;;;;7.67;2.03;;;;;;;;;;5117571;28;20495;-60
2023/05/16 13:54:21;;;;;;;2.37;1.50;;;;;;;;;;5117138;28;20750;-61
2023/05/16 13:56:49;;;;;;;7.67;2.27;;;;;;;;;;5117333;28;20487;-61
2023/05/16 13:59:16;;;;;;;4.13;1.33;;;;;;;;;;5117994;28;20482;-64
2023/05/16 14:01:43;;;;;;;3.60;2.03;;;;;;;;;;5117176;28;20478;-62